sensor_id;sensor_type;location;lat;lon;timestamp;P1;durP1;ratioP1;P2;durP2;ratioP2
77111;SDS011;66064;50.226;14.344;2024-02-28T00:02:06;24.50;;;21.88;;
77111;SDS011;66064;50.226;14.344;2024-02-28T00:04:33;22.05;;;18.63;;
77111;SDS011;66064;50.226;14.344;2024-02-28T00:06:59;22.35;;;20.08;;
77111;SDS011;66064;50.226;14.344;2024-02-28T00:09:25;23.75;;;17.80;;
77111;SDS011;66064;50.226;14.344;2024-02-28T00:11:51;26.08;;;23.38;;
77111;SDS011;66064;50.226;14.344;2024-02-28T00:14:17;21.02;;;18.30;;
77111;SDS011;66064;50.226;14.344;2024-02-28T00:16:44;21.92;;;19.83;;
77111;SDS011;66064;50.226;14.344;2024-02-28T00:19:11;24.50;;;21.48;;
77111;SDS011;66064;50.226;14.344;2024-02-28T00:21:38;25.90;;;23.20;;
77111;SDS011;66064;50.226;14.344;2024-02-28T00:24:05;23.58;;;20.90;;
77111;SDS011;66064;50.226;14.344;2024-02-28T00:26:32;25.15;;;22.77;;
77111;SDS011;66064;50.226;14.344;2024-02-28T00:28:58;25.63;;;23.13;;
77111;SDS011;66064;50.226;14.344;2024-02-28T00:31:25;26.58;;;24.10;;
77111;SDS011;66064;50.226;14.344;2024-02-28T00:33:51;23.02;;;20.63;;
77111;SDS011;66064;50.226;14.344;2024-02-28T00:36:17;25.00;;;22.20;;
77111;SDS011;66064;50.226;14.344;2024-02-28T00:38:43;29.05;;;23.08;;
77111;SDS011;66064;50.226;14.344;2024-02-28T00:41:09;21.55;;;19.23;;
77111;SDS011;66064;50.226;14.344;2024-02-28T00:43:35;26.88;;;24.30;;
77111;SDS011;66064;50.226;14.344;2024-02-28T00:46:02;21.88;;;16.00;;
77111;SDS011;66064;50.226;14.344;2024-02-28T00:48:28;22.83;;;20.63;;
77111;SDS011;66064;50.226;14.344;2024-02-28T00:50:55;24.80;;;22.20;;
77111;SDS011;66064;50.226;14.344;2024-02-28T00:53:21;20.98;;;17.20;;
77111;SDS011;66064;50.226;14.344;2024-02-28T00:55:47;24.08;;;21.50;;
77111;SDS011;66064;50.226;14.344;2024-02-28T00:58:14;24.02;;;21.73;;
77111;SDS011;66064;50.226;14.344;2024-02-28T01:00:40;21.17;;;19.05;;
77111;SDS011;66064;50.226;14.344;2024-02-28T01:03:06;22.30;;;20.02;;
77111;SDS011;66064;50.226;14.344;2024-02-28T01:05:36;24.35;;;21.92;;
77111;SDS011;66064;50.226;14.344;2024-02-28T01:08:02;22.77;;;20.70;;
77111;SDS011;66064;50.226;14.344;2024-02-28T01:10:28;25.23;;;23.05;;
77111;SDS011;66064;50.226;14.344;2024-02-28T01:12:53;23.65;;;21.48;;
77111;SDS011;66064;50.226;14.344;2024-02-28T01:15:19;22.92;;;20.60;;
77111;SDS011;66064;50.226;14.344;2024-02-28T01:17:45;25.17;;;22.83;;
77111;SDS011;66064;50.226;14.344;2024-02-28T01:20:11;24.00;;;22.05;;
77111;SDS011;66064;50.226;14.344;2024-02-28T01:22:37;15.65;;;13.82;;
77111;SDS011;66064;50.226;14.344;2024-02-28T01:25:04;21.75;;;19.60;;
77111;SDS011;66064;50.226;14.344;2024-02-28T01:27:30;22.25;;;20.33;;
77111;SDS011;66064;50.226;14.344;2024-02-28T01:29:56;23.45;;;21.15;;
77111;SDS011;66064;50.226;14.344;2024-02-28T01:32:22;22.25;;;20.45;;
77111;SDS011;66064;50.226;14.344;2024-02-28T01:34:49;23.45;;;21.65;;
77111;SDS011;66064;50.226;14.344;2024-02-28T01:37:14;21.48;;;19.67;;
77111;SDS011;66064;50.226;14.344;2024-02-28T01:39:40;22.85;;;20.58;;
77111;SDS011;66064;50.226;14.344;2024-02-28T01:42:06;22.13;;;19.83;;
77111;SDS011;66064;50.226;14.344;2024-02-28T01:44:33;20.95;;;19.15;;
77111;SDS011;66064;50.226;14.344;2024-02-28T01:47:06;21.13;;;19.42;;
77111;SDS011;66064;50.226;14.344;2024-02-28T01:49:32;21.13;;;19.30;;
77111;SDS011;66064;50.226;14.344;2024-02-28T01:51:58;21.98;;;19.92;;
77111;SDS011;66064;50.226;14.344;2024-02-28T01:54:25;24.65;;;22.63;;
77111;SDS011;66064;50.226;14.344;2024-02-28T01:56:53;20.38;;;18.60;;
77111;SDS011;66064;50.226;14.344;2024-02-28T01:59:20;23.23;;;21.38;;
77111;SDS011;66064;50.226;14.344;2024-02-28T02:01:50;20.58;;;18.50;;
77111;SDS011;66064;50.226;14.344;2024-02-28T02:04:16;18.15;;;16.23;;
77111;SDS011;66064;50.226;14.344;2024-02-28T02:06:42;21.70;;;19.75;;
77111;SDS011;66064;50.226;14.344;2024-02-28T02:09:11;21.70;;;19.83;;
77111;SDS011;66064;50.226;14.344;2024-02-28T02:11:37;21.80;;;19.90;;
77111;SDS011;66064;50.226;14.344;2024-02-28T02:14:04;20.17;;;18.40;;
77111;SDS011;66064;50.226;14.344;2024-02-28T02:16:30;23.10;;;21.10;;
77111;SDS011;66064;50.226;14.344;2024-02-28T02:18:56;22.63;;;20.50;;
77111;SDS011;66064;50.226;14.344;2024-02-28T02:21:24;23.63;;;21.65;;
77111;SDS011;66064;50.226;14.344;2024-02-28T02:23:55;22.08;;;20.23;;
77111;SDS011;66064;50.226;14.344;2024-02-28T02:26:22;24.38;;;22.33;;
77111;SDS011;66064;50.226;14.344;2024-02-28T02:28:48;21.08;;;19.05;;
77111;SDS011;66064;50.226;14.344;2024-02-28T02:31:14;23.48;;;21.25;;
77111;SDS011;66064;50.226;14.344;2024-02-28T02:33:40;21.60;;;19.67;;
77111;SDS011;66064;50.226;14.344;2024-02-28T02:36:06;22.40;;;20.38;;
77111;SDS011;66064;50.226;14.344;2024-02-28T02:38:32;24.08;;;22.08;;
77111;SDS011;66064;50.226;14.344;2024-02-28T02:41:00;25.85;;;23.60;;
77111;SDS011;66064;50.226;14.344;2024-02-28T02:43:26;22.25;;;20.35;;
77111;SDS011;66064;50.226;14.344;2024-02-28T02:45:53;23.52;;;21.35;;
77111;SDS011;66064;50.226;14.344;2024-02-28T02:48:19;21.92;;;19.98;;
77111;SDS011;66064;50.226;14.344;2024-02-28T02:50:45;21.58;;;19.67;;
77111;SDS011;66064;50.226;14.344;2024-02-28T02:53:13;16.52;;;14.32;;
77111;SDS011;66064;50.226;14.344;2024-02-28T02:55:39;22.98;;;20.88;;
77111;SDS011;66064;50.226;14.344;2024-02-28T02:58:04;22.30;;;20.20;;
77111;SDS011;66064;50.226;14.344;2024-02-28T03:00:30;22.00;;;19.75;;
77111;SDS011;66064;50.226;14.344;2024-02-28T03:03:02;23.15;;;21.10;;
77111;SDS011;66064;50.226;14.344;2024-02-28T03:05:28;21.25;;;19.45;;
77111;SDS011;66064;50.226;14.344;2024-02-28T03:07:54;22.17;;;20.35;;
77111;SDS011;66064;50.226;14.344;2024-02-28T03:10:21;22.08;;;18.17;;
77111;SDS011;66064;50.226;14.344;2024-02-28T03:12:47;21.15;;;19.33;;
77111;SDS011;66064;50.226;14.344;2024-02-28T03:15:13;23.98;;;21.77;;
77111;SDS011;66064;50.226;14.344;2024-02-28T03:17:39;21.70;;;19.70;;
77111;SDS011;66064;50.226;14.344;2024-02-28T03:20:05;21.38;;;19.38;;
77111;SDS011;66064;50.226;14.344;2024-02-28T03:22:33;19.92;;;18.10;;
77111;SDS011;66064;50.226;14.344;2024-02-28T03:24:59;21.13;;;19.00;;
77111;SDS011;66064;50.226;14.344;2024-02-28T03:27:25;22.92;;;21.00;;
77111;SDS011;66064;50.226;14.344;2024-02-28T03:29:52;21.25;;;19.25;;
77111;SDS011;66064;50.226;14.344;2024-02-28T03:32:18;23.00;;;20.92;;
77111;SDS011;66064;50.226;14.344;2024-02-28T03:34:45;24.58;;;22.27;;
77111;SDS011;66064;50.226;14.344;2024-02-28T03:37:12;16.90;;;14.93;;
77111;SDS011;66064;50.226;14.344;2024-02-28T03:39:38;22.42;;;20.52;;
77111;SDS011;66064;50.226;14.344;2024-02-28T03:42:04;22.98;;;20.85;;
77111;SDS011;66064;50.226;14.344;2024-02-28T03:44:30;21.58;;;19.67;;
77111;SDS011;66064;50.226;14.344;2024-02-28T03:46:56;26.58;;;24.05;;
77111;SDS011;66064;50.226;14.344;2024-02-28T03:49:22;21.63;;;19.42;;
77111;SDS011;66064;50.226;14.344;2024-02-28T03:51:48;18.58;;;16.80;;
77111;SDS011;66064;50.226;14.344;2024-02-28T03:54:14;22.05;;;19.73;;
77111;SDS011;66064;50.226;14.344;2024-02-28T03:56:40;19.75;;;17.70;;
77111;SDS011;66064;50.226;14.344;2024-02-28T03:59:06;21.27;;;19.17;;
77111;SDS011;66064;50.226;14.344;2024-02-28T04:01:32;19.70;;;17.77;;
77111;SDS011;66064;50.226;14.344;2024-02-28T04:03:58;19.02;;;16.38;;
77111;SDS011;66064;50.226;14.344;2024-02-28T04:06:24;23.55;;;21.25;;
77111;SDS011;66064;50.226;14.344;2024-02-28T04:08:50;20.98;;;18.98;;
77111;SDS011;66064;50.226;14.344;2024-02-28T04:11:16;25.45;;;23.20;;
77111;SDS011;66064;50.226;14.344;2024-02-28T04:13:42;23.70;;;21.25;;
77111;SDS011;66064;50.226;14.344;2024-02-28T04:16:08;23.35;;;19.95;;
77111;SDS011;66064;50.226;14.344;2024-02-28T04:18:36;22.55;;;19.67;;
77111;SDS011;66064;50.226;14.344;2024-02-28T04:21:02;22.58;;;20.42;;
77111;SDS011;66064;50.226;14.344;2024-02-28T04:23:28;31.63;;;20.83;;
77111;SDS011;66064;50.226;14.344;2024-02-28T04:25:54;31.17;;;27.58;;
77111;SDS011;66064;50.226;14.344;2024-02-28T04:28:20;27.25;;;24.33;;
77111;SDS011;66064;50.226;14.344;2024-02-28T04:30:47;17.85;;;14.38;;
77111;SDS011;66064;50.226;14.344;2024-02-28T04:33:14;23.63;;;21.60;;
77111;SDS011;66064;50.226;14.344;2024-02-28T04:35:39;28.17;;;25.63;;
77111;SDS011;66064;50.226;14.344;2024-02-28T04:38:05;26.77;;;24.15;;
77111;SDS011;66064;50.226;14.344;2024-02-28T04:40:31;29.30;;;26.38;;
77111;SDS011;66064;50.226;14.344;2024-02-28T04:42:57;26.50;;;23.88;;
77111;SDS011;66064;50.226;14.344;2024-02-28T04:45:23;23.17;;;20.85;;
77111;SDS011;66064;50.226;14.344;2024-02-28T04:47:49;26.45;;;23.98;;
77111;SDS011;66064;50.226;14.344;2024-02-28T04:50:17;24.45;;;22.02;;
77111;SDS011;66064;50.226;14.344;2024-02-28T04:52:43;23.95;;;21.67;;
77111;SDS011;66064;50.226;14.344;2024-02-28T04:55:09;20.83;;;18.73;;
77111;SDS011;66064;50.226;14.344;2024-02-28T04:57:36;24.02;;;21.48;;
77111;SDS011;66064;50.226;14.344;2024-02-28T05:00:02;24.25;;;20.65;;
77111;SDS011;66064;50.226;14.344;2024-02-28T05:02:29;26.50;;;23.95;;
77111;SDS011;66064;50.226;14.344;2024-02-28T05:04:57;28.58;;;25.98;;
77111;SDS011;66064;50.226;14.344;2024-02-28T05:07:24;27.08;;;24.60;;
77111;SDS011;66064;50.226;14.344;2024-02-28T05:09:50;28.25;;;25.27;;
77111;SDS011;66064;50.226;14.344;2024-02-28T05:12:16;26.88;;;24.15;;
77111;SDS011;66064;50.226;14.344;2024-02-28T05:14:42;25.73;;;22.98;;
77111;SDS011;66064;50.226;14.344;2024-02-28T05:17:09;26.08;;;21.15;;
77111;SDS011;66064;50.226;14.344;2024-02-28T05:19:36;27.25;;;24.63;;
77111;SDS011;66064;50.226;14.344;2024-02-28T05:22:02;25.88;;;23.40;;
77111;SDS011;66064;50.226;14.344;2024-02-28T05:24:28;27.88;;;25.00;;
77111;SDS011;66064;50.226;14.344;2024-02-28T05:26:55;27.77;;;24.60;;
77111;SDS011;66064;50.226;14.344;2024-02-28T05:29:20;29.90;;;26.77;;
77111;SDS011;66064;50.226;14.344;2024-02-28T05:31:46;28.85;;;26.15;;
77111;SDS011;66064;50.226;14.344;2024-02-28T05:34:12;28.48;;;25.60;;
77111;SDS011;66064;50.226;14.344;2024-02-28T05:36:40;26.55;;;24.00;;
77111;SDS011;66064;50.226;14.344;2024-02-28T05:39:06;28.40;;;25.83;;
77111;SDS011;66064;50.226;14.344;2024-02-28T05:41:34;27.15;;;24.42;;
77111;SDS011;66064;50.226;14.344;2024-02-28T05:44:00;26.83;;;23.95;;
77111;SDS011;66064;50.226;14.344;2024-02-28T05:46:26;25.13;;;22.52;;
77111;SDS011;66064;50.226;14.344;2024-02-28T05:48:51;30.52;;;24.17;;
77111;SDS011;66064;50.226;14.344;2024-02-28T05:51:17;27.52;;;24.83;;
77111;SDS011;66064;50.226;14.344;2024-02-28T05:53:44;27.45;;;24.15;;
77111;SDS011;66064;50.226;14.344;2024-02-28T05:56:11;30.10;;;27.30;;
77111;SDS011;66064;50.226;14.344;2024-02-28T05:58:40;28.42;;;23.63;;
77111;SDS011;66064;50.226;14.344;2024-02-28T06:01:07;27.17;;;24.33;;
77111;SDS011;66064;50.226;14.344;2024-02-28T06:03:34;26.60;;;23.85;;
77111;SDS011;66064;50.226;14.344;2024-02-28T06:06:00;28.13;;;25.23;;
77111;SDS011;66064;50.226;14.344;2024-02-28T06:08:31;25.65;;;23.13;;
77111;SDS011;66064;50.226;14.344;2024-02-28T06:11:02;25.70;;;23.13;;
77111;SDS011;66064;50.226;14.344;2024-02-28T06:13:28;27.52;;;24.83;;
77111;SDS011;66064;50.226;14.344;2024-02-28T06:15:55;28.13;;;25.17;;
77111;SDS011;66064;50.226;14.344;2024-02-28T06:18:21;24.63;;;22.02;;
77111;SDS011;66064;50.226;14.344;2024-02-28T06:20:54;25.50;;;22.88;;
77111;SDS011;66064;50.226;14.344;2024-02-28T06:23:20;24.92;;;22.42;;
77111;SDS011;66064;50.226;14.344;2024-02-28T06:25:48;25.08;;;22.67;;
77111;SDS011;66064;50.226;14.344;2024-02-28T06:28:14;25.35;;;23.00;;
77111;SDS011;66064;50.226;14.344;2024-02-28T06:30:42;23.00;;;20.88;;
77111;SDS011;66064;50.226;14.344;2024-02-28T06:33:08;25.60;;;23.25;;
77111;SDS011;66064;50.226;14.344;2024-02-28T06:35:35;25.35;;;23.02;;
77111;SDS011;66064;50.226;14.344;2024-02-28T06:38:01;23.98;;;21.77;;
77111;SDS011;66064;50.226;14.344;2024-02-28T06:40:27;26.23;;;23.70;;
77111;SDS011;66064;50.226;14.344;2024-02-28T06:42:54;23.75;;;21.45;;
77111;SDS011;66064;50.226;14.344;2024-02-28T06:45:20;23.35;;;21.08;;
77111;SDS011;66064;50.226;14.344;2024-02-28T06:47:46;26.90;;;24.73;;
77111;SDS011;66064;50.226;14.344;2024-02-28T06:50:12;23.65;;;21.35;;
77111;SDS011;66064;50.226;14.344;2024-02-28T06:52:38;23.13;;;21.02;;
77111;SDS011;66064;50.226;14.344;2024-02-28T06:55:04;27.40;;;24.90;;
77111;SDS011;66064;50.226;14.344;2024-02-28T06:57:39;24.27;;;21.75;;
77111;SDS011;66064;50.226;14.344;2024-02-28T07:00:07;25.55;;;23.10;;
77111;SDS011;66064;50.226;14.344;2024-02-28T07:02:35;25.48;;;22.85;;
77111;SDS011;66064;50.226;14.344;2024-02-28T07:05:02;28.33;;;25.35;;
77111;SDS011;66064;50.226;14.344;2024-02-28T07:07:30;30.52;;;27.58;;
77111;SDS011;66064;50.226;14.344;2024-02-28T07:09:57;32.33;;;28.98;;
77111;SDS011;66064;50.226;14.344;2024-02-28T07:12:23;32.83;;;29.67;;
77111;SDS011;66064;50.226;14.344;2024-02-28T07:14:50;34.10;;;30.75;;
77111;SDS011;66064;50.226;14.344;2024-02-28T07:17:16;30.05;;;26.88;;
77111;SDS011;66064;50.226;14.344;2024-02-28T07:19:43;30.77;;;27.67;;
77111;SDS011;66064;50.226;14.344;2024-02-28T07:22:09;26.27;;;23.67;;
77111;SDS011;66064;50.226;14.344;2024-02-28T07:24:35;24.02;;;21.50;;
77111;SDS011;66064;50.226;14.344;2024-02-28T07:27:02;25.45;;;22.65;;
77111;SDS011;66064;50.226;14.344;2024-02-28T07:29:29;24.52;;;22.25;;
77111;SDS011;66064;50.226;14.344;2024-02-28T07:31:55;24.27;;;22.08;;
77111;SDS011;66064;50.226;14.344;2024-02-28T07:34:21;27.63;;;24.88;;
77111;SDS011;66064;50.226;14.344;2024-02-28T07:36:47;26.67;;;24.05;;
77111;SDS011;66064;50.226;14.344;2024-02-28T07:39:13;23.13;;;20.83;;
77111;SDS011;66064;50.226;14.344;2024-02-28T07:41:39;24.83;;;22.65;;
77111;SDS011;66064;50.226;14.344;2024-02-28T07:44:07;23.45;;;20.98;;
77111;SDS011;66064;50.226;14.344;2024-02-28T07:46:34;24.42;;;22.13;;
77111;SDS011;66064;50.226;14.344;2024-02-28T07:49:00;24.35;;;22.10;;
77111;SDS011;66064;50.226;14.344;2024-02-28T07:51:27;22.63;;;20.38;;
77111;SDS011;66064;50.226;14.344;2024-02-28T07:53:54;23.15;;;21.05;;
77111;SDS011;66064;50.226;14.344;2024-02-28T07:56:21;21.67;;;19.13;;
77111;SDS011;66064;50.226;14.344;2024-02-28T07:58:47;21.65;;;19.42;;
77111;SDS011;66064;50.226;14.344;2024-02-28T08:01:13;21.45;;;19.45;;
77111;SDS011;66064;50.226;14.344;2024-02-28T08:03:39;25.42;;;23.23;;
77111;SDS011;66064;50.226;14.344;2024-02-28T08:06:06;24.08;;;21.88;;
77111;SDS011;66064;50.226;14.344;2024-02-28T08:08:37;21.38;;;19.27;;
77111;SDS011;66064;50.226;14.344;2024-02-28T08:11:03;22.23;;;19.92;;
77111;SDS011;66064;50.226;14.344;2024-02-28T08:13:29;21.65;;;19.52;;
77111;SDS011;66064;50.226;14.344;2024-02-28T08:15:55;20.88;;;18.50;;
77111;SDS011;66064;50.226;14.344;2024-02-28T08:18:22;21.67;;;19.45;;
77111;SDS011;66064;50.226;14.344;2024-02-28T08:20:47;21.60;;;19.42;;
77111;SDS011;66064;50.226;14.344;2024-02-28T08:23:16;21.63;;;19.52;;
77111;SDS011;66064;50.226;14.344;2024-02-28T08:25:41;18.98;;;17.08;;
77111;SDS011;66064;50.226;14.344;2024-02-28T08:28:07;22.90;;;20.80;;
77111;SDS011;66064;50.226;14.344;2024-02-28T08:30:33;22.35;;;20.23;;
77111;SDS011;66064;50.226;14.344;2024-02-28T08:32:59;20.75;;;18.88;;
77111;SDS011;66064;50.226;14.344;2024-02-28T08:35:25;23.67;;;21.58;;
77111;SDS011;66064;50.226;14.344;2024-02-28T08:37:52;20.60;;;18.50;;
77111;SDS011;66064;50.226;14.344;2024-02-28T08:40:18;18.80;;;14.45;;
77111;SDS011;66064;50.226;14.344;2024-02-28T08:42:44;20.65;;;18.88;;
77111;SDS011;66064;50.226;14.344;2024-02-28T08:45:11;21.98;;;19.83;;
77111;SDS011;66064;50.226;14.344;2024-02-28T08:47:37;20.38;;;18.50;;
77111;SDS011;66064;50.226;14.344;2024-02-28T08:50:03;18.60;;;16.88;;
77111;SDS011;66064;50.226;14.344;2024-02-28T08:52:30;19.20;;;17.48;;
77111;SDS011;66064;50.226;14.344;2024-02-28T08:54:56;17.52;;;15.73;;
77111;SDS011;66064;50.226;14.344;2024-02-28T08:57:22;20.95;;;18.92;;
77111;SDS011;66064;50.226;14.344;2024-02-28T08:59:49;22.23;;;20.23;;
77111;SDS011;66064;50.226;14.344;2024-02-28T09:02:17;16.17;;;12.63;;
77111;SDS011;66064;50.226;14.344;2024-02-28T09:04:43;17.98;;;16.27;;
77111;SDS011;66064;50.226;14.344;2024-02-28T09:07:09;20.50;;;18.50;;
77111;SDS011;66064;50.226;14.344;2024-02-28T09:09:35;18.17;;;16.50;;
77111;SDS011;66064;50.226;14.344;2024-02-28T09:12:04;19.40;;;17.50;;
77111;SDS011;66064;50.226;14.344;2024-02-28T09:14:30;18.85;;;17.08;;
77111;SDS011;66064;50.226;14.344;2024-02-28T09:16:57;21.13;;;19.23;;
77111;SDS011;66064;50.226;14.344;2024-02-28T09:19:29;18.05;;;16.35;;
77111;SDS011;66064;50.226;14.344;2024-02-28T09:21:56;19.73;;;17.77;;
77111;SDS011;66064;50.226;14.344;2024-02-28T09:24:23;21.63;;;19.35;;
77111;SDS011;66064;50.226;14.344;2024-02-28T09:26:50;19.10;;;17.48;;
77111;SDS011;66064;50.226;14.344;2024-02-28T09:29:16;16.85;;;14.23;;
77111;SDS011;66064;50.226;14.344;2024-02-28T09:31:42;18.33;;;16.80;;
77111;SDS011;66064;50.226;14.344;2024-02-28T09:34:08;18.00;;;16.38;;
77111;SDS011;66064;50.226;14.344;2024-02-28T09:36:44;20.80;;;18.90;;
77111;SDS011;66064;50.226;14.344;2024-02-28T09:39:11;15.80;;;14.20;;
77111;SDS011;66064;50.226;14.344;2024-02-28T09:41:38;20.05;;;18.15;;
77111;SDS011;66064;50.226;14.344;2024-02-28T09:44:05;16.50;;;14.90;;
77111;SDS011;66064;50.226;14.344;2024-02-28T09:46:32;20.40;;;18.67;;
77111;SDS011;66064;50.226;14.344;2024-02-28T09:49:04;20.92;;;19.25;;
77111;SDS011;66064;50.226;14.344;2024-02-28T09:51:34;17.70;;;15.80;;
77111;SDS011;66064;50.226;14.344;2024-02-28T09:54:02;19.15;;;17.35;;
77111;SDS011;66064;50.226;14.344;2024-02-28T09:56:30;19.90;;;16.52;;
77111;SDS011;66064;50.226;14.344;2024-02-28T09:58:57;20.27;;;18.42;;
77111;SDS011;66064;50.226;14.344;2024-02-28T10:01:25;17.15;;;15.45;;
77111;SDS011;66064;50.226;14.344;2024-02-28T10:03:52;17.30;;;15.57;;
77111;SDS011;66064;50.226;14.344;2024-02-28T10:06:20;17.95;;;16.25;;
77111;SDS011;66064;50.226;14.344;2024-02-28T10:08:46;17.75;;;16.05;;
77111;SDS011;66064;50.226;14.344;2024-02-28T10:11:23;18.83;;;16.92;;
77111;SDS011;66064;50.226;14.344;2024-02-28T10:13:49;20.08;;;16.52;;
77111;SDS011;66064;50.226;14.344;2024-02-28T10:16:16;17.83;;;16.13;;
77111;SDS011;66064;50.226;14.344;2024-02-28T10:18:42;16.58;;;14.13;;
77111;SDS011;66064;50.226;14.344;2024-02-28T10:21:10;17.15;;;15.70;;
77111;SDS011;66064;50.226;14.344;2024-02-28T10:23:42;17.40;;;15.35;;
77111;SDS011;66064;50.226;14.344;2024-02-28T10:26:11;15.82;;;14.43;;
77111;SDS011;66064;50.226;14.344;2024-02-28T10:31:09;18.50;;;16.90;;
77111;SDS011;66064;50.226;14.344;2024-02-28T10:33:36;17.58;;;15.90;;
77111;SDS011;66064;50.226;14.344;2024-02-28T10:36:02;16.25;;;13.82;;
77111;SDS011;66064;50.226;14.344;2024-02-28T10:38:30;17.98;;;16.42;;
77111;SDS011;66064;50.226;14.344;2024-02-28T10:41:02;20.67;;;16.20;;
77111;SDS011;66064;50.226;14.344;2024-02-28T10:43:29;18.48;;;16.13;;
77111;SDS011;66064;50.226;14.344;2024-02-28T10:45:58;16.58;;;15.13;;
77111;SDS011;66064;50.226;14.344;2024-02-28T10:48:24;18.00;;;16.27;;
77111;SDS011;66064;50.226;14.344;2024-02-28T10:50:51;19.15;;;17.45;;
77111;SDS011;66064;50.226;14.344;2024-02-28T10:53:32;18.70;;;16.80;;
77111;SDS011;66064;50.226;14.344;2024-02-28T10:56:09;15.73;;;13.80;;
77111;SDS011;66064;50.226;14.344;2024-02-28T11:01:06;17.23;;;15.55;;
77111;SDS011;66064;50.226;14.344;2024-02-28T11:03:33;16.73;;;15.20;;
77111;SDS011;66064;50.226;14.344;2024-02-28T11:05:59;17.23;;;15.75;;
77111;SDS011;66064;50.226;14.344;2024-02-28T11:08:27;15.88;;;14.20;;
77111;SDS011;66064;50.226;14.344;2024-02-28T11:11:03;15.75;;;14.35;;
77111;SDS011;66064;50.226;14.344;2024-02-28T11:13:33;17.73;;;16.13;;
77111;SDS011;66064;50.226;14.344;2024-02-28T11:16:09;18.63;;;16.85;;
77111;SDS011;66064;50.226;14.344;2024-02-28T11:21:02;16.92;;;15.43;;
77111;SDS011;66064;50.226;14.344;2024-02-28T11:23:36;18.33;;;16.83;;
77111;SDS011;66064;50.226;14.344;2024-02-28T11:26:03;15.50;;;13.88;;
77111;SDS011;66064;50.226;14.344;2024-02-28T11:28:29;17.60;;;16.05;;
77111;SDS011;66064;50.226;14.344;2024-02-28T11:30:55;17.27;;;15.75;;
77111;SDS011;66064;50.226;14.344;2024-02-28T11:33:21;17.10;;;15.57;;
77111;SDS011;66064;50.226;14.344;2024-02-28T11:35:57;18.25;;;16.55;;
77111;SDS011;66064;50.226;14.344;2024-02-28T11:38:26;17.52;;;15.80;;
77111;SDS011;66064;50.226;14.344;2024-02-28T11:40:53;15.90;;;14.60;;
77111;SDS011;66064;50.226;14.344;2024-02-28T11:43:21;18.65;;;17.05;;
77111;SDS011;66064;50.226;14.344;2024-02-28T11:45:47;17.90;;;14.57;;
77111;SDS011;66064;50.226;14.344;2024-02-28T11:48:14;18.50;;;16.88;;
77111;SDS011;66064;50.226;14.344;2024-02-28T11:50:41;16.98;;;15.23;;
77111;SDS011;66064;50.226;14.344;2024-02-28T11:53:07;13.88;;;12.38;;
77111;SDS011;66064;50.226;14.344;2024-02-28T11:55:34;17.67;;;14.88;;
77111;SDS011;66064;50.226;14.344;2024-02-28T11:58:02;17.88;;;16.10;;
77111;SDS011;66064;50.226;14.344;2024-02-28T12:00:27;17.85;;;16.15;;
77111;SDS011;66064;50.226;14.344;2024-02-28T12:03:03;18.02;;;16.33;;
77111;SDS011;66064;50.226;14.344;2024-02-28T12:05:32;16.70;;;15.02;;
77111;SDS011;66064;50.226;14.344;2024-02-28T12:07:57;17.10;;;15.65;;
77111;SDS011;66064;50.226;14.344;2024-02-28T12:10:25;19.15;;;16.88;;
77111;SDS011;66064;50.226;14.344;2024-02-28T12:12:50;16.17;;;14.52;;
77111;SDS011;66064;50.226;14.344;2024-02-28T12:15:17;18.20;;;16.50;;
77111;SDS011;66064;50.226;14.344;2024-02-28T12:17:43;16.25;;;14.10;;
77111;SDS011;66064;50.226;14.344;2024-02-28T12:20:09;15.50;;;14.10;;
77111;SDS011;66064;50.226;14.344;2024-02-28T12:22:35;17.70;;;16.00;;
77111;SDS011;66064;50.226;14.344;2024-02-28T12:25:01;15.90;;;14.32;;
77111;SDS011;66064;50.226;14.344;2024-02-28T12:27:30;16.35;;;14.73;;
77111;SDS011;66064;50.226;14.344;2024-02-28T12:29:59;16.80;;;15.40;;
77111;SDS011;66064;50.226;14.344;2024-02-28T12:32:25;17.25;;;14.88;;
77111;SDS011;66064;50.226;14.344;2024-02-28T12:34:51;16.67;;;15.07;;
77111;SDS011;66064;50.226;14.344;2024-02-28T12:37:17;18.63;;;16.45;;
77111;SDS011;66064;50.226;14.344;2024-02-28T12:39:43;18.52;;;16.55;;
77111;SDS011;66064;50.226;14.344;2024-02-28T12:42:09;17.25;;;15.63;;
77111;SDS011;66064;50.226;14.344;2024-02-28T12:44:37;17.33;;;15.57;;
77111;SDS011;66064;50.226;14.344;2024-02-28T12:47:04;16.10;;;14.70;;
77111;SDS011;66064;50.226;14.344;2024-02-28T12:49:30;17.45;;;15.85;;
77111;SDS011;66064;50.226;14.344;2024-02-28T12:51:56;17.52;;;15.38;;
77111;SDS011;66064;50.226;14.344;2024-02-28T12:54:22;17.27;;;15.63;;
77111;SDS011;66064;50.226;14.344;2024-02-28T12:56:49;16.17;;;14.50;;
77111;SDS011;66064;50.226;14.344;2024-02-28T12:59:15;18.45;;;16.80;;
77111;SDS011;66064;50.226;14.344;2024-02-28T13:01:41;16.65;;;15.07;;
77111;SDS011;66064;50.226;14.344;2024-02-28T13:04:10;16.90;;;15.30;;
77111;SDS011;66064;50.226;14.344;2024-02-28T13:06:36;16.92;;;14.85;;
77111;SDS011;66064;50.226;14.344;2024-02-28T13:09:04;18.25;;;16.58;;
77111;SDS011;66064;50.226;14.344;2024-02-28T13:11:31;19.45;;;17.63;;
77111;SDS011;66064;50.226;14.344;2024-02-28T13:13:57;16.95;;;15.45;;
77111;SDS011;66064;50.226;14.344;2024-02-28T13:16:23;17.02;;;15.23;;
77111;SDS011;66064;50.226;14.344;2024-02-28T13:18:49;18.10;;;16.35;;
77111;SDS011;66064;50.226;14.344;2024-02-28T13:21:16;19.30;;;17.67;;
77111;SDS011;66064;50.226;14.344;2024-02-28T13:23:42;19.85;;;18.05;;
77111;SDS011;66064;50.226;14.344;2024-02-28T13:26:08;17.63;;;15.98;;
77111;SDS011;66064;50.226;14.344;2024-02-28T13:28:35;20.88;;;18.92;;
77111;SDS011;66064;50.226;14.344;2024-02-28T13:31:02;17.70;;;15.90;;
77111;SDS011;66064;50.226;14.344;2024-02-28T13:33:30;18.98;;;17.17;;
77111;SDS011;66064;50.226;14.344;2024-02-28T13:35:56;21.48;;;19.67;;
77111;SDS011;66064;50.226;14.344;2024-02-28T13:38:22;17.92;;;16.38;;
77111;SDS011;66064;50.226;14.344;2024-02-28T13:40:48;17.90;;;15.73;;
77111;SDS011;66064;50.226;14.344;2024-02-28T13:43:15;20.42;;;18.65;;
77111;SDS011;66064;50.226;14.344;2024-02-28T13:45:48;17.52;;;12.73;;
77111;SDS011;66064;50.226;14.344;2024-02-28T13:48:24;18.48;;;14.48;;
77111;SDS011;66064;50.226;14.344;2024-02-28T13:50:50;20.98;;;18.83;;
77111;SDS011;66064;50.226;14.344;2024-02-28T13:53:17;18.98;;;16.77;;
77111;SDS011;66064;50.226;14.344;2024-02-28T13:55:43;20.80;;;18.60;;
77111;SDS011;66064;50.226;14.344;2024-02-28T13:58:11;19.33;;;12.50;;
77111;SDS011;66064;50.226;14.344;2024-02-28T14:00:38;20.75;;;18.85;;
77111;SDS011;66064;50.226;14.344;2024-02-28T14:03:05;17.55;;;15.77;;
77111;SDS011;66064;50.226;14.344;2024-02-28T14:05:34;19.45;;;17.55;;
77111;SDS011;66064;50.226;14.344;2024-02-28T14:08:00;18.60;;;17.00;;
77111;SDS011;66064;50.226;14.344;2024-02-28T14:10:26;17.15;;;15.05;;
77111;SDS011;66064;50.226;14.344;2024-02-28T14:12:53;16.67;;;14.98;;
77111;SDS011;66064;50.226;14.344;2024-02-28T14:15:19;17.23;;;15.38;;